createdAt,value
2018-09-30T00:01:52.145Z,11.00
2018-09-30T00:04:23.255Z,11.00
2018-09-30T00:06:54.128Z,10.90
2018-09-30T00:09:30.607Z,10.90
2018-09-30T00:12:02.892Z,10.90
2018-09-30T00:14:33.563Z,10.80
2018-09-30T00:17:04.330Z,10.80
2018-09-30T00:19:35.079Z,10.80
2018-09-30T00:22:06.721Z,10.80
2018-09-30T00:24:42.682Z,10.70
2018-09-30T00:27:20.915Z,10.70
2018-09-30T00:29:51.883Z,10.70
2018-09-30T00:32:22.518Z,10.70
2018-09-30T00:34:53.882Z,10.60
2018-09-30T00:37:24.696Z,10.60
2018-09-30T00:39:55.588Z,10.60
2018-09-30T00:42:26.527Z,10.60
2018-09-30T00:44:57.745Z,10.50
2018-09-30T00:47:28.822Z,10.50
2018-09-30T00:49:59.611Z,10.50
2018-09-30T00:52:30.234Z,10.50
2018-09-30T00:55:02.102Z,10.40
2018-09-30T00:57:32.886Z,10.40
2018-09-30T01:00:03.510Z,10.40
2018-09-30T01:02:34.346Z,10.40
2018-09-30T01:05:05.812Z,10.40
2018-09-30T01:07:36.647Z,10.40
2018-09-30T01:10:08.091Z,10.30
2018-09-30T01:12:38.826Z,10.30
2018-09-30T01:15:09.597Z,10.30
2018-09-30T01:17:40.750Z,10.30
2018-09-30T01:20:11.716Z,10.30
2018-09-30T01:22:42.414Z,10.30
2018-09-30T01:25:13.196Z,10.30
2018-09-30T01:27:43.909Z,10.30
2018-09-30T01:30:14.960Z,10.20
2018-09-30T01:32:45.674Z,10.20
2018-09-30T01:35:16.318Z,10.20
2018-09-30T01:37:46.958Z,10.20
2018-09-30T01:40:17.699Z,10.10
2018-09-30T01:42:48.699Z,10.10
2018-09-30T01:45:19.655Z,10.10
2018-09-30T01:47:50.558Z,10.10
2018-09-30T01:50:21.276Z,10.10
2018-09-30T01:52:54.665Z,10.00
2018-09-30T01:55:25.295Z,10.00
2018-09-30T01:57:56.551Z,10.00
2018-09-30T02:00:28.645Z,10.00
2018-09-30T02:02:59.444Z,9.90
2018-09-30T02:05:30.217Z,9.90
2018-09-30T02:08:01.252Z,9.90
2018-09-30T02:10:31.963Z,9.90
2018-09-30T02:13:02.599Z,9.90
2018-09-30T02:15:33.991Z,9.90
2018-09-30T02:18:04.803Z,9.90
2018-09-30T02:20:35.627Z,9.80
2018-09-30T02:23:06.392Z,9.80
2018-09-30T02:25:37.269Z,9.80
2018-09-30T02:28:07.844Z,9.70
2018-09-30T02:30:38.589Z,9.70
2018-09-30T02:33:09.500Z,9.60
2018-09-30T02:35:40.195Z,9.60
2018-09-30T02:38:11.375Z,9.60
2018-09-30T02:40:42.071Z,9.50
2018-09-30T02:43:12.977Z,9.50
2018-09-30T02:45:43.730Z,9.50
2018-09-30T02:48:14.511Z,9.40
2018-09-30T02:50:45.128Z,9.40
2018-09-30T02:53:16.468Z,9.40
2018-09-30T02:55:47.802Z,9.30
2018-09-30T02:58:20.008Z,9.30
2018-09-30T03:00:51.059Z,9.40
2018-09-30T03:03:21.916Z,9.30
2018-09-30T03:05:52.662Z,9.40
2018-09-30T03:08:28.502Z,9.30
2018-09-30T03:10:59.525Z,9.30
2018-09-30T03:13:30.405Z,9.30
2018-09-30T03:16:00.966Z,9.40
2018-09-30T03:18:32.711Z,9.30
2018-09-30T03:21:03.565Z,9.30
2018-09-30T03:23:34.613Z,9.30
2018-09-30T03:26:05.292Z,9.30
2018-09-30T03:28:35.927Z,9.30
2018-09-30T03:31:06.611Z,9.30
2018-09-30T03:33:37.412Z,9.30
2018-09-30T03:36:09.731Z,9.30
2018-09-30T03:38:40.423Z,9.30
2018-09-30T03:41:11.237Z,9.30
2018-09-30T03:43:42.137Z,9.30
2018-09-30T03:46:12.897Z,9.30
2018-09-30T03:48:43.519Z,9.30
2018-09-30T03:51:14.174Z,9.30
2018-09-30T03:53:44.889Z,9.30
2018-09-30T03:56:15.701Z,9.30
2018-09-30T03:58:46.475Z,9.30
2018-09-30T04:01:17.303Z,9.30
2018-09-30T04:03:47.885Z,9.30
2018-09-30T04:06:18.811Z,9.30
2018-09-30T04:08:49.545Z,9.30
2018-09-30T04:11:21.071Z,9.30
2018-09-30T04:13:51.822Z,9.30
2018-09-30T04:16:22.763Z,9.30
2018-09-30T04:18:53.571Z,9.20
2018-09-30T04:21:24.152Z,9.20
2018-09-30T04:23:59.208Z,9.20
2018-09-30T04:26:30.022Z,9.20
2018-09-30T04:29:01.220Z,9.20
2018-09-30T04:31:32.040Z,9.20
2018-09-30T04:34:03.175Z,9.20
2018-09-30T04:36:34.872Z,9.20
2018-09-30T04:39:08.400Z,9.20
2018-09-30T04:41:39.362Z,9.10
2018-09-30T04:44:10.057Z,9.10
2018-09-30T04:46:41.409Z,9.10
2018-09-30T04:49:12.203Z,9.10
2018-09-30T04:51:42.842Z,9.10
2018-09-30T04:54:13.825Z,9.00
2018-09-30T04:56:44.743Z,9.00
2018-09-30T04:59:15.597Z,9.00
2018-09-30T05:01:46.183Z,9.00
2018-09-30T05:04:24.591Z,9.00
2018-09-30T05:06:55.424Z,8.90
2018-09-30T05:09:26.136Z,9.00
2018-09-30T05:11:56.824Z,8.90
2018-09-30T05:14:28.206Z,8.90
2018-09-30T05:16:59.024Z,8.90
2018-09-30T05:19:29.866Z,8.90
2018-09-30T05:22:00.798Z,8.90
2018-09-30T05:24:31.835Z,8.90
2018-09-30T05:27:02.927Z,8.40
2018-09-30T05:29:34.173Z,8.90
2018-09-30T05:32:05.112Z,8.90
2018-09-30T05:34:35.798Z,8.90
2018-09-30T05:37:07.242Z,9.30
2018-09-30T05:39:38.314Z,8.90
2018-09-30T05:42:09.163Z,8.90
2018-09-30T05:44:39.949Z,8.90
2018-09-30T05:47:10.577Z,8.90
2018-09-30T05:49:41.368Z,8.90
2018-09-30T05:52:11.991Z,8.90
2018-09-30T05:54:42.718Z,8.90
2018-09-30T05:57:13.457Z,8.90
2018-09-30T05:59:44.142Z,9.00
2018-09-30T06:02:14.740Z,9.00
2018-09-30T06:04:45.591Z,9.00
2018-09-30T06:07:16.344Z,9.00
2018-09-30T06:09:47.042Z,9.10
2018-09-30T06:12:17.661Z,9.10
2018-09-30T06:14:48.231Z,9.10
2018-09-30T06:17:18.947Z,9.10
2018-09-30T06:19:49.763Z,9.10
2018-09-30T06:22:20.559Z,9.10
2018-09-30T06:24:51.452Z,9.20
2018-09-30T06:27:22.363Z,9.20
2018-09-30T06:29:53.279Z,9.20
2018-09-30T06:32:24.075Z,9.30
2018-09-30T06:34:55.082Z,9.30
2018-09-30T06:37:25.927Z,9.40
2018-09-30T06:39:56.512Z,9.40
2018-09-30T06:42:27.520Z,9.50
2018-09-30T06:44:58.516Z,9.50
2018-09-30T06:47:29.373Z,9.60
2018-09-30T06:49:59.992Z,9.60
2018-09-30T06:52:30.596Z,9.60
2018-09-30T06:55:01.549Z,9.70
2018-09-30T06:57:32.271Z,9.80
2018-09-30T07:00:03.436Z,9.90
2018-09-30T07:02:34.588Z,9.90
2018-09-30T07:05:05.355Z,10.00
2018-09-30T07:07:35.980Z,10.10
2018-09-30T07:10:08.096Z,10.20
2018-09-30T07:12:38.720Z,10.30
2018-09-30T07:15:09.555Z,10.40
2018-09-30T07:17:40.166Z,10.50
2018-09-30T07:20:11.323Z,10.60
2018-09-30T07:22:42.257Z,10.60
2018-09-30T07:25:13.074Z,10.80
2018-09-30T07:27:43.871Z,10.90
2018-09-30T07:30:14.646Z,10.90
2018-09-30T07:32:45.679Z,11.10
2018-09-30T07:35:16.861Z,11.20
2018-09-30T07:37:47.690Z,11.30
2018-09-30T07:40:18.369Z,11.40
2018-09-30T07:42:49.169Z,11.50
2018-09-30T07:45:19.906Z,11.60
2018-09-30T07:47:50.564Z,11.70
2018-09-30T07:50:21.870Z,11.80
2018-09-30T07:52:52.506Z,11.90
2018-09-30T07:55:23.508Z,12.00
2018-09-30T07:57:54.454Z,12.10
2018-09-30T08:00:25.041Z,12.20
2018-09-30T08:02:55.770Z,12.30
2018-09-30T08:05:26.450Z,12.40
2018-09-30T08:07:57.328Z,12.50
2018-09-30T08:10:28.054Z,12.70
2018-09-30T08:12:58.720Z,12.70
2018-09-30T08:15:29.810Z,12.90
2018-09-30T08:18:00.470Z,13.00
2018-09-30T08:20:31.189Z,13.10
2018-09-30T08:23:03.227Z,13.20
2018-09-30T08:25:33.746Z,13.30
2018-09-30T08:28:04.665Z,13.40
2018-09-30T08:30:35.199Z,13.50
2018-09-30T08:33:06.506Z,13.60
2018-09-30T08:35:37.112Z,13.70
2018-09-30T08:38:13.034Z,13.80
2018-09-30T08:40:48.837Z,14.80
2018-09-30T08:43:19.546Z,14.10
2018-09-30T08:45:51.055Z,14.20
2018-09-30T08:48:21.817Z,14.30
2018-09-30T08:50:54.462Z,14.50
2018-09-30T08:53:25.564Z,14.60
2018-09-30T08:55:56.816Z,14.70
2018-09-30T08:58:28.626Z,14.80
2018-09-30T09:00:59.258Z,15.00
2018-09-30T09:03:29.896Z,15.10
2018-09-30T09:06:00.758Z,15.20
2018-09-30T09:08:31.767Z,15.30
2018-09-30T09:11:02.492Z,15.40
2018-09-30T09:13:33.551Z,15.50
2018-09-30T09:16:04.277Z,15.70
2018-09-30T09:18:34.915Z,15.80
2018-09-30T09:21:06.377Z,16.00
2018-09-30T09:23:37.232Z,16.10
2018-09-30T09:26:08.317Z,16.40
2018-09-30T09:28:38.961Z,16.60
2018-09-30T09:31:16.690Z,16.90
2018-09-30T09:33:47.474Z,16.80
2018-09-30T09:36:18.162Z,17.50
2018-09-30T09:38:49.014Z,17.90
2018-09-30T09:41:19.711Z,18.30
2018-09-30T09:43:50.358Z,18.60
2018-09-30T09:46:20.874Z,19.00
2018-09-30T09:48:51.812Z,19.40
2018-09-30T09:51:29.127Z,19.80
2018-09-30T09:54:00.055Z,20.30
2018-09-30T09:56:30.758Z,20.70
2018-09-30T09:59:01.550Z,21.00
2018-09-30T10:01:32.825Z,21.40
2018-09-30T10:04:03.657Z,21.80
2018-09-30T10:06:34.417Z,22.20
2018-09-30T10:09:06.188Z,22.50
2018-09-30T10:11:36.910Z,22.90
2018-09-30T10:14:07.801Z,23.30
2018-09-30T10:16:38.556Z,23.60
2018-09-30T10:19:09.757Z,24.00
2018-09-30T10:21:40.996Z,24.40
2018-09-30T10:24:12.230Z,24.70
2018-09-30T10:26:43.460Z,25.10
2018-09-30T10:29:15.241Z,25.50
2018-09-30T10:31:46.536Z,25.90
2018-09-30T10:34:17.727Z,26.30
2018-09-30T10:36:48.867Z,26.60
2018-09-30T10:39:20.214Z,26.80
2018-09-30T10:41:51.469Z,27.00
2018-09-30T10:44:22.630Z,27.20
2018-09-30T10:46:54.135Z,27.30
2018-09-30T10:49:25.823Z,27.50
2018-09-30T10:51:57.028Z,27.80
2018-09-30T10:54:28.635Z,28.10
2018-09-30T10:56:59.991Z,28.50
2018-09-30T10:59:31.367Z,28.80
2018-09-30T11:02:04.015Z,29.20
2018-09-30T11:04:35.369Z,29.50
2018-09-30T11:07:07.245Z,29.80
2018-09-30T11:09:38.441Z,30.00
2018-09-30T11:12:09.912Z,30.20
2018-09-30T11:14:41.041Z,30.50
2018-09-30T11:17:12.500Z,30.70
2018-09-30T11:19:43.797Z,30.90
2018-09-30T11:22:15.046Z,31.10
2018-09-30T11:24:46.389Z,31.30
2018-09-30T11:27:17.531Z,31.50
2018-09-30T11:29:48.676Z,31.80
2018-09-30T11:32:20.144Z,32.00
2018-09-30T11:34:51.381Z,32.30
2018-09-30T11:37:22.826Z,32.50
2018-09-30T11:39:54.364Z,32.70
2018-09-30T11:42:25.601Z,33.00
2018-09-30T11:44:57.056Z,33.20
2018-09-30T11:47:28.219Z,33.40
2018-09-30T11:49:59.494Z,33.70
2018-09-30T11:52:30.809Z,33.90
2018-09-30T11:55:03.356Z,34.10
2018-09-30T11:57:34.810Z,34.20
2018-09-30T12:00:06.485Z,34.30
2018-09-30T12:02:37.789Z,34.40
2018-09-30T12:05:08.921Z,34.40
2018-09-30T12:07:40.409Z,34.40
2018-09-30T12:10:11.703Z,34.50
2018-09-30T12:12:42.907Z,34.50
2018-09-30T12:15:16.019Z,34.60
2018-09-30T12:17:47.940Z,34.70
2018-09-30T12:20:19.190Z,34.80
2018-09-30T12:22:50.496Z,34.90
2018-09-30T12:25:21.724Z,35.00
2018-09-30T12:31:04.894Z,35.20
2018-09-30T12:36:39.958Z,35.40
2018-09-30T12:39:11.726Z,35.50
2018-09-30T12:41:43.297Z,35.50
2018-09-30T12:44:14.686Z,35.50
2018-09-30T12:46:45.845Z,35.60
2018-09-30T12:49:17.262Z,35.50
2018-09-30T12:51:48.432Z,35.40
2018-09-30T12:54:19.809Z,35.20
2018-09-30T12:56:51.426Z,34.90
2018-09-30T12:59:22.674Z,34.50
2018-09-30T13:01:54.034Z,34.00
2018-09-30T13:04:25.699Z,33.50
2018-09-30T13:06:56.828Z,32.90
2018-09-30T13:09:28.125Z,32.30
2018-09-30T13:11:59.343Z,31.60
2018-09-30T13:14:30.645Z,31.10
2018-09-30T13:17:01.837Z,30.50
2018-09-30T13:19:33.232Z,29.80
2018-09-30T13:22:05.202Z,29.20
2018-09-30T13:24:37.804Z,28.60
2018-09-30T13:27:08.439Z,28.00
2018-09-30T13:29:39.255Z,27.40
2018-09-30T13:32:09.845Z,26.90
2018-09-30T13:34:40.886Z,26.40
2018-09-30T13:37:11.528Z,26.00
2018-09-30T13:39:42.044Z,25.60
2018-09-30T13:42:13.272Z,25.30
2018-09-30T13:44:44.093Z,25.00
2018-09-30T13:47:14.662Z,24.70
2018-09-30T13:49:45.423Z,24.40
2018-09-30T13:52:16.231Z,24.20
2018-09-30T13:54:47.305Z,24.00
2018-09-30T13:57:18.546Z,23.80
2018-09-30T13:59:49.109Z,23.60
2018-09-30T14:02:19.743Z,23.50
2018-09-30T14:04:50.424Z,23.30
2018-09-30T14:07:21.119Z,23.20
2018-09-30T14:09:52.126Z,23.10
2018-09-30T14:12:22.753Z,23.10
2018-09-30T14:14:53.385Z,23.10
2018-09-30T14:17:24.369Z,23.00
2018-09-30T14:19:55.293Z,23.00
2018-09-30T14:22:26.429Z,23.10
2018-09-30T14:24:57.161Z,23.20
2018-09-30T14:27:27.996Z,23.30
2018-09-30T14:29:58.715Z,23.50
2018-09-30T14:32:29.521Z,23.60
2018-09-30T14:35:00.246Z,23.90
2018-09-30T14:37:31.519Z,24.10
2018-09-30T14:40:02.777Z,24.40
2018-09-30T14:42:33.597Z,24.70
2018-09-30T14:45:04.505Z,24.80
2018-09-30T14:47:35.243Z,24.90
2018-09-30T14:50:06.361Z,24.90
2018-09-30T14:52:37.065Z,24.90
2018-09-30T14:55:08.029Z,24.80
2018-09-30T14:57:38.654Z,24.80
2018-09-30T15:00:09.337Z,24.70
2018-09-30T15:02:40.039Z,24.50
2018-09-30T15:05:10.819Z,24.30
2018-09-30T15:07:41.451Z,24.10
2018-09-30T15:10:12.141Z,23.90
2018-09-30T15:12:42.707Z,23.60
2018-09-30T15:15:13.443Z,23.40
2018-09-30T15:17:44.073Z,23.20
2018-09-30T15:20:14.488Z,23.00
2018-09-30T15:22:45.099Z,22.70
2018-09-30T15:25:15.724Z,22.60
2018-09-30T15:27:46.219Z,22.40
2018-09-30T15:30:16.819Z,22.20
2018-09-30T15:32:48.090Z,22.00
2018-09-30T15:35:18.638Z,21.90
2018-09-30T15:37:49.707Z,21.80
2018-09-30T15:40:20.489Z,21.70
2018-09-30T15:42:51.268Z,21.50
2018-09-30T15:45:22.492Z,21.40
2018-09-30T15:47:53.350Z,21.30
2018-09-30T15:50:23.998Z,21.20
2018-09-30T15:52:54.902Z,21.10
2018-09-30T15:55:26.260Z,21.10
2018-09-30T15:57:56.843Z,21.00
2018-09-30T16:00:28.001Z,20.90
2018-09-30T16:02:58.545Z,20.80
2018-09-30T16:05:29.625Z,20.70
2018-09-30T16:08:00.489Z,20.60
2018-09-30T16:10:31.459Z,20.50
2018-09-30T16:13:02.378Z,20.40
2018-09-30T16:15:33.278Z,20.30
2018-09-30T16:18:13.158Z,20.30
2018-09-30T16:20:43.979Z,20.20
2018-09-30T16:24:02.922Z,20.10
2018-09-30T16:26:33.549Z,20.10
2018-09-30T16:29:04.235Z,20.00
2018-09-30T16:31:34.871Z,19.90
2018-09-30T16:34:06.033Z,19.80
2018-09-30T16:36:36.666Z,19.70
2018-09-30T16:39:09.670Z,19.60
2018-09-30T16:41:40.478Z,19.60
2018-09-30T16:44:11.488Z,19.50
2018-09-30T16:46:42.120Z,19.40
2018-09-30T16:49:13.289Z,19.40
2018-09-30T16:51:44.251Z,19.30
2018-09-30T16:54:14.720Z,19.30
2018-09-30T16:56:45.548Z,19.20
2018-09-30T16:59:16.421Z,19.20
2018-09-30T17:01:47.177Z,19.10
2018-09-30T17:04:17.791Z,19.00
2018-09-30T17:06:48.612Z,19.00
2018-09-30T17:09:19.876Z,18.90
2018-09-30T17:11:50.496Z,18.90
2018-09-30T17:14:21.492Z,18.80
2018-09-30T17:16:52.197Z,18.80
2018-09-30T17:19:23.055Z,18.80
2018-09-30T17:21:53.900Z,18.70
2018-09-30T17:24:24.699Z,18.70
2018-09-30T17:26:55.628Z,18.70
2018-09-30T17:29:26.382Z,18.60
2018-09-30T17:31:57.199Z,18.60
2018-09-30T17:34:28.130Z,18.50
2018-09-30T17:36:59.584Z,18.50
2018-09-30T17:39:30.237Z,18.50
2018-09-30T17:42:01.074Z,18.50
2018-09-30T17:44:31.969Z,18.40
2018-09-30T17:47:02.768Z,18.40
2018-09-30T17:49:33.528Z,18.40
2018-09-30T17:52:04.462Z,18.40
2018-09-30T17:54:35.036Z,18.30
2018-09-30T17:57:05.807Z,18.30
2018-09-30T17:59:36.471Z,18.30
2018-09-30T18:02:07.435Z,18.30
2018-09-30T18:04:38.220Z,18.20
2018-09-30T18:07:09.401Z,18.20
2018-09-30T18:09:40.157Z,18.20
2018-09-30T18:12:10.695Z,18.20
2018-09-30T18:14:41.422Z,18.10
2018-09-30T18:17:12.607Z,18.10
2018-09-30T18:19:43.656Z,18.10
2018-09-30T18:22:14.530Z,18.10
2018-09-30T18:24:45.412Z,18.00
2018-09-30T18:27:16.494Z,18.00
2018-09-30T18:29:47.749Z,18.00
2018-09-30T18:32:19.301Z,17.90
2018-09-30T18:34:50.161Z,17.90
2018-09-30T18:37:20.841Z,17.80
2018-09-30T18:39:51.928Z,17.90
2018-09-30T18:42:23.467Z,17.80
2018-09-30T18:44:54.857Z,17.80
2018-09-30T18:47:25.866Z,17.80
2018-09-30T18:49:57.427Z,17.80
2018-09-30T18:52:28.715Z,17.80
2018-09-30T18:55:00.032Z,17.90
2018-09-30T18:57:32.923Z,17.80
2018-09-30T19:00:05.489Z,17.80
2018-09-30T19:02:36.522Z,17.80
2018-09-30T19:05:08.724Z,17.80
2018-09-30T19:07:39.843Z,17.70
2018-09-30T19:10:11.089Z,17.80
2018-09-30T19:12:42.104Z,17.70
2018-09-30T19:15:13.622Z,17.70
2018-09-30T19:17:45.228Z,17.70
2018-09-30T19:20:16.292Z,17.70
2018-09-30T19:22:47.149Z,17.60
2018-09-30T19:25:17.868Z,17.60
2018-09-30T19:27:48.548Z,17.50
2018-09-30T19:30:19.440Z,17.50
2018-09-30T19:32:50.320Z,17.40
2018-09-30T19:35:21.118Z,17.40
2018-09-30T19:37:52.089Z,17.30
2018-09-30T19:40:22.923Z,17.30
2018-09-30T19:42:53.604Z,17.20
2018-09-30T19:45:24.445Z,17.20
2018-09-30T19:47:55.452Z,17.20
2018-09-30T19:50:26.159Z,17.20
2018-09-30T19:52:56.864Z,17.20
2018-09-30T19:55:27.497Z,17.10
2018-09-30T19:57:58.116Z,17.10
2018-09-30T20:00:29.260Z,17.10
2018-09-30T20:02:59.946Z,17.10
2018-09-30T20:05:30.570Z,17.10
2018-09-30T20:08:01.302Z,17.10
2018-09-30T20:10:32.087Z,17.10
2018-09-30T20:13:03.301Z,17.10
2018-09-30T20:15:34.016Z,17.10
2018-09-30T20:18:04.930Z,17.10
2018-09-30T20:20:35.763Z,17.20
2018-09-30T20:23:06.625Z,17.10
2018-09-30T20:25:37.166Z,17.10
2018-09-30T20:28:08.314Z,17.10
2018-09-30T20:30:39.543Z,17.10
2018-09-30T20:33:10.314Z,17.10
2018-09-30T20:35:41.122Z,17.10
2018-09-30T20:38:12.023Z,17.10
2018-09-30T20:40:43.084Z,17.10
2018-09-30T20:43:14.009Z,17.00
2018-09-30T20:45:44.760Z,17.00
2018-09-30T20:48:15.414Z,17.00
2018-09-30T20:50:45.967Z,17.00
2018-09-30T20:53:16.846Z,17.00
2018-09-30T20:55:47.507Z,17.00
2018-09-30T20:58:18.512Z,17.00
2018-09-30T21:00:49.350Z,17.00
2018-09-30T21:03:20.193Z,17.00
2018-09-30T21:06:30.826Z,16.90
2018-09-30T21:09:01.592Z,16.90
2018-09-30T21:11:32.416Z,16.90
2018-09-30T21:14:04.056Z,16.80
2018-09-30T21:16:34.952Z,16.80
2018-09-30T21:19:06.082Z,16.80
2018-09-30T21:21:36.824Z,16.70
2018-09-30T21:24:07.428Z,16.70
2018-09-30T21:26:38.446Z,16.70
2018-09-30T21:29:09.301Z,16.70
2018-09-30T21:31:39.948Z,16.70
2018-09-30T21:34:10.689Z,16.60
2018-09-30T21:36:41.457Z,16.60
2018-09-30T21:39:12.566Z,16.60
2018-09-30T21:41:43.628Z,16.60
2018-09-30T21:44:14.162Z,16.50
2018-09-30T21:46:44.937Z,16.50
2018-09-30T21:49:15.649Z,16.50
2018-09-30T21:51:46.356Z,16.50
2018-09-30T21:54:17.047Z,16.50
2018-09-30T21:56:48.905Z,16.40
2018-09-30T21:59:19.606Z,16.40
2018-09-30T22:01:50.657Z,16.40
2018-09-30T22:04:21.391Z,16.40
2018-09-30T22:06:51.940Z,16.30
2018-09-30T22:09:22.782Z,16.30
2018-09-30T22:11:53.560Z,16.30
2018-09-30T22:14:24.117Z,16.20
2018-09-30T22:16:54.776Z,16.20
2018-09-30T22:19:25.544Z,16.10
2018-09-30T22:21:56.540Z,16.10
2018-09-30T22:24:27.497Z,16.10
2018-09-30T22:26:58.184Z,16.20
2018-09-30T22:29:29.080Z,16.10
2018-09-30T22:31:59.877Z,16.00
2018-09-30T22:34:30.638Z,16.00
2018-09-30T22:37:01.441Z,16.00
2018-09-30T22:39:31.795Z,15.90
2018-09-30T22:42:02.433Z,15.90
2018-09-30T22:44:33.275Z,15.90
2018-09-30T22:47:04.001Z,15.80
2018-09-30T22:49:34.552Z,15.80
2018-09-30T22:52:05.208Z,15.80
2018-09-30T22:54:35.744Z,15.70
2018-09-30T22:57:06.703Z,15.70
2018-09-30T22:59:37.577Z,15.70
2018-09-30T23:02:08.508Z,15.70
2018-09-30T23:04:39.165Z,15.80
2018-09-30T23:07:16.593Z,15.80
2018-09-30T23:09:47.797Z,15.80
2018-09-30T23:12:18.534Z,15.80
2018-09-30T23:14:49.185Z,15.80
2018-09-30T23:17:19.791Z,15.90
2018-09-30T23:19:50.552Z,15.90
2018-09-30T23:22:21.135Z,15.90
2018-09-30T23:24:51.851Z,15.90
2018-09-30T23:27:22.960Z,15.90
2018-09-30T23:29:53.616Z,15.90
2018-09-30T23:32:25.460Z,16.00
2018-09-30T23:34:56.058Z,16.00
2018-09-30T23:37:26.817Z,16.00
2018-09-30T23:39:57.781Z,16.00
2018-09-30T23:42:28.293Z,16.00
2018-09-30T23:44:58.906Z,16.00
2018-09-30T23:47:29.584Z,16.00
2018-09-30T23:50:00.646Z,16.00
2018-09-30T23:52:31.223Z,16.00
2018-09-30T23:55:01.783Z,16.00
2018-09-30T23:57:32.322Z,16.00
